Arundel, Maine
Current Conditions -  °F | °C
As of 2:15 AM on Wednesday 22 Oct 2014 (Local Time) from KSFM Reporting Station
Overcast Overcast  
Wind Chill: 40°   Ceiling: 500
Heat Index: 46°   Visibility: 8mi
Dew Point: 43°   Wind: 14mph
Humidity: 87%   Direction: 10°N
Pressure: 30.04"   Gusts: 20mph
Location:  43.4079°N, 70.4735°W
Report Text: KSFM 220615Z AUTO 01012G17KT 8SM OVC005 08/06 A3004 RMK AO1 P0002
Loading
Personal Weather Stations






























Interactive Weather Map
Tropical Storm Tracking
New forecast layout! Learn more

10-Day Weather Forecast

Advertisements
Track Severe Weather on mobile